South Dennis, Massachusetts
Current Conditions -  °F | °C
As of 3:56 PM on Friday 19 Dec 2014 (Local Time) from KHYA Reporting Station
Overcast Overcast  
Wind Chill: 31°   Ceiling: 3200
Heat Index: 35°   Visibility: 10mi
Dew Point: 22°   Wind: 5mph
Humidity: 59%   Direction: 290°WNW
Pressure: 29.97"   Gusts: NA
Location:  41.7°N, 70.16°W
Report Text: KHYA 192056Z 29004KT 10SM OVC032 02/M06 A2997 RMK AO2 SLP149 T00171056 53019
Loading
Personal Weather Stations






























Interactive Weather Map New forecast layout! Learn more

10-Day Weather Forecast

Advertisements
Track Severe Weather on mobile